sensor_id;sensor_type;location;lat;lon;timestamp;P1;durP1;ratioP1;P2;durP2;ratioP2
5499;SDS011;2772;42.700;23.304;2023-06-14T00:01:48;6.20;;;5.70;;
5499;SDS011;2772;42.700;23.304;2023-06-14T00:04:14;6.37;;;5.87;;
5499;SDS011;2772;42.700;23.304;2023-06-14T00:06:43;6.37;;;5.80;;
5499;SDS011;2772;42.700;23.304;2023-06-14T00:09:11;6.40;;;5.90;;
5499;SDS011;2772;42.700;23.304;2023-06-14T00:11:38;6.40;;;5.80;;
5499;SDS011;2772;42.700;23.304;2023-06-14T00:14:05;6.17;;;5.30;;
5499;SDS011;2772;42.700;23.304;2023-06-14T00:16:33;9.67;;;5.50;;
5499;SDS011;2772;42.700;23.304;2023-06-14T00:19:00;6.43;;;5.27;;
5499;SDS011;2772;42.700;23.304;2023-06-14T00:21:33;5.77;;;5.37;;
5499;SDS011;2772;42.700;23.304;2023-06-14T00:24:17;6.50;;;5.90;;
5499;SDS011;2772;42.700;23.304;2023-06-14T00:26:43;6.10;;;5.60;;
5499;SDS011;2772;42.700;23.304;2023-06-14T00:29:10;5.10;;;4.80;;
5499;SDS011;2772;42.700;23.304;2023-06-14T00:31:38;9.00;;;5.47;;
5499;SDS011;2772;42.700;23.304;2023-06-14T00:34:05;8.30;;;5.83;;
5499;SDS011;2772;42.700;23.304;2023-06-14T00:36:31;5.57;;;5.03;;
5499;SDS011;2772;42.700;23.304;2023-06-14T00:38:58;9.50;;;5.13;;
5499;SDS011;2772;42.700;23.304;2023-06-14T00:41:25;6.00;;;5.60;;
5499;SDS011;2772;42.700;23.304;2023-06-14T00:43:52;7.63;;;5.17;;
5499;SDS011;2772;42.700;23.304;2023-06-14T00:46:21;5.57;;;4.93;;
5499;SDS011;2772;42.700;23.304;2023-06-14T00:48:49;5.70;;;5.20;;
5499;SDS011;2772;42.700;23.304;2023-06-14T00:51:16;5.53;;;5.13;;
5499;SDS011;2772;42.700;23.304;2023-06-14T00:53:43;5.97;;;5.27;;
5499;SDS011;2772;42.700;23.304;2023-06-14T00:56:12;7.10;;;5.90;;
5499;SDS011;2772;42.700;23.304;2023-06-14T00:58:40;6.50;;;5.20;;
5499;SDS011;2772;42.700;23.304;2023-06-14T01:01:07;7.47;;;5.67;;
5499;SDS011;2772;42.700;23.304;2023-06-14T01:03:34;5.50;;;4.90;;
5499;SDS011;2772;42.700;23.304;2023-06-14T01:06:04;5.60;;;5.20;;
5499;SDS011;2772;42.700;23.304;2023-06-14T01:08:40;5.80;;;5.30;;
5499;SDS011;2772;42.700;23.304;2023-06-14T01:11:16;6.10;;;5.50;;
5499;SDS011;2772;42.700;23.304;2023-06-14T01:13:48;6.00;;;5.40;;
5499;SDS011;2772;42.700;23.304;2023-06-14T01:16:17;6.10;;;5.60;;
5499;SDS011;2772;42.700;23.304;2023-06-14T01:18:45;5.70;;;5.20;;
5499;SDS011;2772;42.700;23.304;2023-06-14T01:21:21;5.80;;;5.40;;
5499;SDS011;2772;42.700;23.304;2023-06-14T01:23:50;6.00;;;5.50;;
5499;SDS011;2772;42.700;23.304;2023-06-14T01:26:18;6.43;;;5.80;;
5499;SDS011;2772;42.700;23.304;2023-06-14T01:28:46;6.73;;;5.93;;
5499;SDS011;2772;42.700;23.304;2023-06-14T01:31:16;7.10;;;5.77;;
5499;SDS011;2772;42.700;23.304;2023-06-14T01:33:44;6.57;;;5.23;;
5499;SDS011;2772;42.700;23.304;2023-06-14T01:36:12;6.30;;;5.80;;
5499;SDS011;2772;42.700;23.304;2023-06-14T01:38:39;6.73;;;6.03;;
5499;SDS011;2772;42.700;23.304;2023-06-14T01:41:09;9.00;;;6.53;;
5499;SDS011;2772;42.700;23.304;2023-06-14T01:43:37;6.93;;;6.27;;
5499;SDS011;2772;42.700;23.304;2023-06-14T01:46:06;10.13;;;6.53;;
5499;SDS011;2772;42.700;23.304;2023-06-14T01:48:34;6.60;;;6.03;;
5499;SDS011;2772;42.700;23.304;2023-06-14T01:51:01;12.80;;;6.40;;
5499;SDS011;2772;42.700;23.304;2023-06-14T01:53:28;7.17;;;6.57;;
5499;SDS011;2772;42.700;23.304;2023-06-14T01:55:54;6.93;;;6.30;;
5499;SDS011;2772;42.700;23.304;2023-06-14T01:58:22;7.70;;;6.20;;
5499;SDS011;2772;42.700;23.304;2023-06-14T02:00:51;6.53;;;5.87;;
5499;SDS011;2772;42.700;23.304;2023-06-14T02:03:20;5.97;;;5.57;;
5499;SDS011;2772;42.700;23.304;2023-06-14T02:05:48;7.20;;;6.50;;
5499;SDS011;2772;42.700;23.304;2023-06-14T02:08:15;6.80;;;6.00;;
5499;SDS011;2772;42.700;23.304;2023-06-14T02:10:41;7.10;;;6.50;;
5499;SDS011;2772;42.700;23.304;2023-06-14T02:13:08;6.70;;;6.07;;
5499;SDS011;2772;42.700;23.304;2023-06-14T02:15:36;6.63;;;5.97;;
5499;SDS011;2772;42.700;23.304;2023-06-14T02:18:03;10.40;;;5.87;;
5499;SDS011;2772;42.700;23.304;2023-06-14T02:20:30;6.13;;;5.63;;
5499;SDS011;2772;42.700;23.304;2023-06-14T02:22:57;6.80;;;6.20;;
5499;SDS011;2772;42.700;23.304;2023-06-14T02:25:24;8.20;;;6.30;;
5499;SDS011;2772;42.700;23.304;2023-06-14T02:27:52;8.70;;;6.47;;
5499;SDS011;2772;42.700;23.304;2023-06-14T02:30:20;8.80;;;6.67;;
5499;SDS011;2772;42.700;23.304;2023-06-14T02:32:48;9.67;;;7.00;;
5499;SDS011;2772;42.700;23.304;2023-06-14T02:35:16;7.40;;;6.70;;
5499;SDS011;2772;42.700;23.304;2023-06-14T02:37:43;9.70;;;7.23;;
5499;SDS011;2772;42.700;23.304;2023-06-14T02:40:10;7.70;;;7.00;;
5499;SDS011;2772;42.700;23.304;2023-06-14T02:42:37;7.47;;;5.93;;
5499;SDS011;2772;42.700;23.304;2023-06-14T02:45:04;6.73;;;6.20;;
5499;SDS011;2772;42.700;23.304;2023-06-14T02:47:31;8.10;;;6.17;;
5499;SDS011;2772;42.700;23.304;2023-06-14T02:49:59;7.37;;;6.77;;
5499;SDS011;2772;42.700;23.304;2023-06-14T02:52:27;9.73;;;7.10;;
5499;SDS011;2772;42.700;23.304;2023-06-14T02:54:54;7.93;;;6.80;;
5499;SDS011;2772;42.700;23.304;2023-06-14T02:57:21;6.80;;;6.30;;
5499;SDS011;2772;42.700;23.304;2023-06-14T02:59:48;7.30;;;6.60;;
5499;SDS011;2772;42.700;23.304;2023-06-14T03:02:14;8.57;;;6.53;;
5499;SDS011;2772;42.700;23.304;2023-06-14T03:04:41;15.60;;;6.83;;
5499;SDS011;2772;42.700;23.304;2023-06-14T03:07:11;11.53;;;7.17;;
5499;SDS011;2772;42.700;23.304;2023-06-14T03:09:38;7.07;;;6.47;;
5499;SDS011;2772;42.700;23.304;2023-06-14T03:12:06;6.80;;;6.10;;
5499;SDS011;2772;42.700;23.304;2023-06-14T03:14:34;6.07;;;5.57;;
5499;SDS011;2772;42.700;23.304;2023-06-14T03:17:01;12.27;;;6.63;;
5499;SDS011;2772;42.700;23.304;2023-06-14T03:19:29;8.47;;;6.83;;
5499;SDS011;2772;42.700;23.304;2023-06-14T03:21:56;9.27;;;6.67;;
5499;SDS011;2772;42.700;23.304;2023-06-14T03:24:25;10.30;;;6.67;;
5499;SDS011;2772;42.700;23.304;2023-06-14T03:26:53;7.40;;;6.70;;
5499;SDS011;2772;42.700;23.304;2023-06-14T03:29:20;8.23;;;7.40;;
5499;SDS011;2772;42.700;23.304;2023-06-14T03:31:56;11.53;;;7.10;;
5499;SDS011;2772;42.700;23.304;2023-06-14T03:34:24;8.07;;;7.33;;
5499;SDS011;2772;42.700;23.304;2023-06-14T03:36:51;8.30;;;7.50;;
5499;SDS011;2772;42.700;23.304;2023-06-14T03:39:17;15.00;;;6.93;;
5499;SDS011;2772;42.700;23.304;2023-06-14T03:41:45;12.40;;;7.60;;
5499;SDS011;2772;42.700;23.304;2023-06-14T03:44:14;11.83;;;7.20;;
5499;SDS011;2772;42.700;23.304;2023-06-14T03:46:41;12.13;;;7.13;;
5499;SDS011;2772;42.700;23.304;2023-06-14T03:49:08;11.93;;;7.50;;
5499;SDS011;2772;42.700;23.304;2023-06-14T03:51:35;10.67;;;7.20;;
5499;SDS011;2772;42.700;23.304;2023-06-14T03:54:02;8.03;;;6.83;;
5499;SDS011;2772;42.700;23.304;2023-06-14T03:56:29;7.60;;;6.80;;
5499;SDS011;2772;42.700;23.304;2023-06-14T03:58:57;9.63;;;7.03;;
5499;SDS011;2772;42.700;23.304;2023-06-14T04:01:24;8.20;;;7.20;;
5499;SDS011;2772;42.700;23.304;2023-06-14T04:03:55;8.83;;;6.93;;
5499;SDS011;2772;42.700;23.304;2023-06-14T04:06:22;8.33;;;7.20;;
5499;SDS011;2772;42.700;23.304;2023-06-14T04:08:57;10.63;;;7.43;;
5499;SDS011;2772;42.700;23.304;2023-06-14T04:11:27;9.70;;;7.23;;
5499;SDS011;2772;42.700;23.304;2023-06-14T04:13:54;8.17;;;7.23;;
5499;SDS011;2772;42.700;23.304;2023-06-14T04:16:22;12.10;;;7.40;;
5499;SDS011;2772;42.700;23.304;2023-06-14T04:18:49;8.53;;;6.50;;
5499;SDS011;2772;42.700;23.304;2023-06-14T04:21:17;9.50;;;7.50;;
5499;SDS011;2772;42.700;23.304;2023-06-14T04:23:44;14.17;;;7.43;;
5499;SDS011;2772;42.700;23.304;2023-06-14T04:26:10;12.67;;;9.27;;
5499;SDS011;2772;42.700;23.304;2023-06-14T04:28:37;13.93;;;8.47;;
5499;SDS011;2772;42.700;23.304;2023-06-14T04:31:05;16.03;;;8.07;;
5499;SDS011;2772;42.700;23.304;2023-06-14T04:33:34;17.70;;;8.00;;
5499;SDS011;2772;42.700;23.304;2023-06-14T04:36:09;23.13;;;9.10;;
5499;SDS011;2772;42.700;23.304;2023-06-14T04:38:37;16.20;;;8.20;;
5499;SDS011;2772;42.700;23.304;2023-06-14T04:41:03;11.83;;;6.70;;
5499;SDS011;2772;42.700;23.304;2023-06-14T04:43:31;14.97;;;8.20;;
5499;SDS011;2772;42.700;23.304;2023-06-14T04:46:03;8.60;;;7.70;;
5499;SDS011;2772;42.700;23.304;2023-06-14T04:48:30;11.87;;;8.73;;
5499;SDS011;2772;42.700;23.304;2023-06-14T04:50:59;11.80;;;7.00;;
5499;SDS011;2772;42.700;23.304;2023-06-14T04:53:25;10.87;;;7.63;;
5499;SDS011;2772;42.700;23.304;2023-06-14T04:55:54;9.63;;;7.57;;
5499;SDS011;2772;42.700;23.304;2023-06-14T04:58:21;8.67;;;7.77;;
5499;SDS011;2772;42.700;23.304;2023-06-14T05:00:47;11.30;;;7.33;;
5499;SDS011;2772;42.700;23.304;2023-06-14T05:03:14;10.90;;;7.83;;
5499;SDS011;2772;42.700;23.304;2023-06-14T05:05:43;14.60;;;10.00;;
5499;SDS011;2772;42.700;23.304;2023-06-14T05:08:12;10.77;;;7.50;;
5499;SDS011;2772;42.700;23.304;2023-06-14T05:10:38;8.70;;;7.27;;
5499;SDS011;2772;42.700;23.304;2023-06-14T05:13:05;9.80;;;8.80;;
5499;SDS011;2772;42.700;23.304;2023-06-14T05:15:32;17.60;;;8.30;;
5499;SDS011;2772;42.700;23.304;2023-06-14T05:17:59;19.23;;;9.50;;
5499;SDS011;2772;42.700;23.304;2023-06-14T05:20:26;14.73;;;8.63;;
5499;SDS011;2772;42.700;23.304;2023-06-14T05:22:53;20.60;;;9.97;;
5499;SDS011;2772;42.700;23.304;2023-06-14T05:25:23;16.57;;;9.50;;
5499;SDS011;2772;42.700;23.304;2023-06-14T05:27:50;14.73;;;8.70;;
5499;SDS011;2772;42.700;23.304;2023-06-14T05:30:16;9.77;;;8.70;;
5499;SDS011;2772;42.700;23.304;2023-06-14T05:32:43;10.57;;;9.32;;
5499;SDS011;2772;42.700;23.304;2023-06-14T05:35:10;9.97;;;8.67;;
5499;SDS011;2772;42.700;23.304;2023-06-14T05:37:37;22.10;;;10.03;;
5499;SDS011;2772;42.700;23.304;2023-06-14T05:40:04;13.63;;;10.70;;
5499;SDS011;2772;42.700;23.304;2023-06-14T05:42:33;15.90;;;9.97;;
5499;SDS011;2772;42.700;23.304;2023-06-14T05:45:00;18.63;;;10.70;;
5499;SDS011;2772;42.700;23.304;2023-06-14T05:47:26;14.63;;;10.57;;
5499;SDS011;2772;42.700;23.304;2023-06-14T05:49:53;11.83;;;10.57;;
5499;SDS011;2772;42.700;23.304;2023-06-14T05:52:20;16.73;;;10.90;;
5499;SDS011;2772;42.700;23.304;2023-06-14T05:54:47;15.90;;;10.67;;
5499;SDS011;2772;42.700;23.304;2023-06-14T05:57:14;13.00;;;10.40;;
5499;SDS011;2772;42.700;23.304;2023-06-14T05:59:42;14.20;;;10.40;;
5499;SDS011;2772;42.700;23.304;2023-06-14T06:02:09;13.47;;;11.20;;
5499;SDS011;2772;42.700;23.304;2023-06-14T06:04:35;14.10;;;10.33;;
5499;SDS011;2772;42.700;23.304;2023-06-14T06:07:02;27.73;;;12.53;;
5499;SDS011;2772;42.700;23.304;2023-06-14T06:09:30;15.53;;;12.70;;
5499;SDS011;2772;42.700;23.304;2023-06-14T06:11:57;14.90;;;12.00;;
5499;SDS011;2772;42.700;23.304;2023-06-14T06:14:23;20.13;;;11.77;;
5499;SDS011;2772;42.700;23.304;2023-06-14T06:16:51;16.60;;;12.10;;
5499;SDS011;2772;42.700;23.304;2023-06-14T06:19:18;20.17;;;13.77;;
5499;SDS011;2772;42.700;23.304;2023-06-14T06:21:45;27.60;;;13.63;;
5499;SDS011;2772;42.700;23.304;2023-06-14T06:24:12;26.00;;;14.27;;
5499;SDS011;2772;42.700;23.304;2023-06-14T06:26:39;21.80;;;12.60;;
5499;SDS011;2772;42.700;23.304;2023-06-14T06:29:06;20.80;;;12.77;;
5499;SDS011;2772;42.700;23.304;2023-06-14T06:31:32;16.40;;;12.67;;
5499;SDS011;2772;42.700;23.304;2023-06-14T06:34:00;23.83;;;12.50;;
5499;SDS011;2772;42.700;23.304;2023-06-14T06:36:27;25.43;;;12.13;;
5499;SDS011;2772;42.700;23.304;2023-06-14T06:38:54;14.97;;;11.60;;
5499;SDS011;2772;42.700;23.304;2023-06-14T06:41:21;16.13;;;12.10;;
5499;SDS011;2772;42.700;23.304;2023-06-14T06:43:47;14.83;;;11.90;;
5499;SDS011;2772;42.700;23.304;2023-06-14T06:46:14;15.43;;;12.27;;
5499;SDS011;2772;42.700;23.304;2023-06-14T06:48:42;16.03;;;12.80;;
5499;SDS011;2772;42.700;23.304;2023-06-14T06:51:11;17.40;;;12.70;;
5499;SDS011;2772;42.700;23.304;2023-06-14T06:53:38;20.50;;;13.00;;
5499;SDS011;2772;42.700;23.304;2023-06-14T06:56:04;28.53;;;16.47;;
5499;SDS011;2772;42.700;23.304;2023-06-14T06:58:31;19.03;;;15.90;;
5499;SDS011;2772;42.700;23.304;2023-06-14T07:00:58;22.80;;;16.53;;
5499;SDS011;2772;42.700;23.304;2023-06-14T07:03:25;20.93;;;15.00;;
5499;SDS011;2772;42.700;23.304;2023-06-14T07:05:51;18.87;;;13.83;;
5499;SDS011;2772;42.700;23.304;2023-06-14T07:08:19;18.93;;;14.40;;
5499;SDS011;2772;42.700;23.304;2023-06-14T07:10:46;25.40;;;14.73;;
5499;SDS011;2772;42.700;23.304;2023-06-14T07:13:13;20.53;;;13.80;;
5499;SDS011;2772;42.700;23.304;2023-06-14T07:15:40;26.90;;;15.60;;
5499;SDS011;2772;42.700;23.304;2023-06-14T07:18:06;25.27;;;14.87;;
5499;SDS011;2772;42.700;23.304;2023-06-14T07:20:33;22.50;;;18.00;;
5499;SDS011;2772;42.700;23.304;2023-06-14T07:23:03;26.37;;;20.03;;
5499;SDS011;2772;42.700;23.304;2023-06-14T07:25:31;28.07;;;17.90;;
5499;SDS011;2772;42.700;23.304;2023-06-14T07:27:58;25.40;;;15.60;;
5499;SDS011;2772;42.700;23.304;2023-06-14T07:30:25;22.93;;;16.37;;
5499;SDS011;2772;42.700;23.304;2023-06-14T07:32:52;28.60;;;16.80;;
5499;SDS011;2772;42.700;23.304;2023-06-14T07:35:19;23.13;;;15.83;;
5499;SDS011;2772;42.700;23.304;2023-06-14T07:37:46;22.77;;;16.37;;
5499;SDS011;2772;42.700;23.304;2023-06-14T07:40:13;24.43;;;17.23;;
5499;SDS011;2772;42.700;23.304;2023-06-14T07:42:41;26.17;;;16.33;;
5499;SDS011;2772;42.700;23.304;2023-06-14T07:45:08;22.10;;;15.23;;
5499;SDS011;2772;42.700;23.304;2023-06-14T07:47:36;24.73;;;15.73;;
5499;SDS011;2772;42.700;23.304;2023-06-14T07:50:02;23.10;;;15.67;;
5499;SDS011;2772;42.700;23.304;2023-06-14T07:52:29;22.50;;;16.00;;
5499;SDS011;2772;42.700;23.304;2023-06-14T07:54:56;20.50;;;14.93;;
5499;SDS011;2772;42.700;23.304;2023-06-14T07:57:23;18.20;;;14.20;;
5499;SDS011;2772;42.700;23.304;2023-06-14T07:59:51;18.93;;;13.60;;
5499;SDS011;2772;42.700;23.304;2023-06-14T08:02:18;14.33;;;12.80;;
5499;SDS011;2772;42.700;23.304;2023-06-14T08:04:45;16.13;;;12.30;;
5499;SDS011;2772;42.700;23.304;2023-06-14T08:07:13;22.20;;;13.47;;
5499;SDS011;2772;42.700;23.304;2023-06-14T08:09:40;15.80;;;13.77;;
5499;SDS011;2772;42.700;23.304;2023-06-14T08:12:07;18.87;;;13.50;;
5499;SDS011;2772;42.700;23.304;2023-06-14T08:14:35;17.13;;;12.00;;
5499;SDS011;2772;42.700;23.304;2023-06-14T08:17:03;15.60;;;12.53;;
5499;SDS011;2772;42.700;23.304;2023-06-14T08:19:30;15.93;;;12.23;;
5499;SDS011;2772;42.700;23.304;2023-06-14T08:21:57;14.17;;;11.93;;
5499;SDS011;2772;42.700;23.304;2023-06-14T08:24:25;13.67;;;11.00;;
5499;SDS011;2772;42.700;23.304;2023-06-14T08:26:52;12.90;;;10.90;;
5499;SDS011;2772;42.700;23.304;2023-06-14T08:29:18;13.37;;;11.63;;
5499;SDS011;2772;42.700;23.304;2023-06-14T08:31:45;14.80;;;12.23;;
5499;SDS011;2772;42.700;23.304;2023-06-14T08:34:14;15.90;;;12.60;;
5499;SDS011;2772;42.700;23.304;2023-06-14T08:36:40;13.97;;;11.97;;
5499;SDS011;2772;42.700;23.304;2023-06-14T08:39:07;15.87;;;11.83;;
5499;SDS011;2772;42.700;23.304;2023-06-14T08:41:35;24.23;;;12.37;;
5499;SDS011;2772;42.700;23.304;2023-06-14T08:44:02;15.53;;;11.87;;
5499;SDS011;2772;42.700;23.304;2023-06-14T08:46:29;17.80;;;12.70;;
5499;SDS011;2772;42.700;23.304;2023-06-14T08:48:59;16.30;;;12.00;;
5499;SDS011;2772;42.700;23.304;2023-06-14T08:51:29;28.97;;;13.07;;
5499;SDS011;2772;42.700;23.304;2023-06-14T08:54:00;18.50;;;11.80;;
5499;SDS011;2772;42.700;23.304;2023-06-14T08:56:29;17.40;;;12.73;;
5499;SDS011;2772;42.700;23.304;2023-06-14T08:58:57;13.30;;;11.83;;
5499;SDS011;2772;42.700;23.304;2023-06-14T09:01:28;16.90;;;11.67;;
5499;SDS011;2772;42.700;23.304;2023-06-14T09:03:56;19.53;;;12.80;;
5499;SDS011;2772;42.700;23.304;2023-06-14T09:06:23;15.53;;;11.10;;
5499;SDS011;2772;42.700;23.304;2023-06-14T09:08:51;13.80;;;11.90;;
5499;SDS011;2772;42.700;23.304;2023-06-14T09:11:19;15.37;;;11.47;;
5499;SDS011;2772;42.700;23.304;2023-06-14T09:13:45;18.30;;;12.53;;
5499;SDS011;2772;42.700;23.304;2023-06-14T09:16:13;15.60;;;12.13;;
5499;SDS011;2772;42.700;23.304;2023-06-14T09:18:40;16.40;;;12.00;;
5499;SDS011;2772;42.700;23.304;2023-06-14T09:21:08;16.73;;;12.40;;
5499;SDS011;2772;42.700;23.304;2023-06-14T09:23:36;19.17;;;12.20;;
5499;SDS011;2772;42.700;23.304;2023-06-14T09:26:09;25.17;;;11.10;;
5499;SDS011;2772;42.700;23.304;2023-06-14T09:28:40;16.40;;;10.90;;
5499;SDS011;2772;42.700;23.304;2023-06-14T09:31:08;15.07;;;12.87;;
5499;SDS011;2772;42.700;23.304;2023-06-14T09:33:36;53.20;;;42.23;;
5499;SDS011;2772;42.700;23.304;2023-06-14T09:36:03;14.27;;;12.27;;
5499;SDS011;2772;42.700;23.304;2023-06-14T09:38:30;14.40;;;11.73;;
5499;SDS011;2772;42.700;23.304;2023-06-14T09:40:58;24.70;;;20.70;;
5499;SDS011;2772;42.700;23.304;2023-06-14T09:43:26;17.70;;;14.93;;
5499;SDS011;2772;42.700;23.304;2023-06-14T09:45:54;15.40;;;12.60;;
5499;SDS011;2772;42.700;23.304;2023-06-14T09:48:21;27.20;;;16.73;;
5499;SDS011;2772;42.700;23.304;2023-06-14T09:50:49;28.70;;;20.20;;
5499;SDS011;2772;42.700;23.304;2023-06-14T09:53:17;45.60;;;34.67;;
5499;SDS011;2772;42.700;23.304;2023-06-14T09:55:48;20.43;;;13.60;;
5499;SDS011;2772;42.700;23.304;2023-06-14T09:58:16;15.23;;;13.60;;
5499;SDS011;2772;42.700;23.304;2023-06-14T10:00:47;19.13;;;15.97;;
5499;SDS011;2772;42.700;23.304;2023-06-14T10:03:20;15.90;;;13.60;;
5499;SDS011;2772;42.700;23.304;2023-06-14T10:05:50;15.93;;;13.00;;
5499;SDS011;2772;42.700;23.304;2023-06-14T10:08:18;16.13;;;13.20;;
5499;SDS011;2772;42.700;23.304;2023-06-14T10:10:50;19.33;;;14.40;;
5499;SDS011;2772;42.700;23.304;2023-06-14T10:13:17;14.03;;;12.53;;
5499;SDS011;2772;42.700;23.304;2023-06-14T10:15:48;25.43;;;17.13;;
5499;SDS011;2772;42.700;23.304;2023-06-14T10:18:25;47.87;;;34.47;;
5499;SDS011;2772;42.700;23.304;2023-06-14T10:21:01;24.10;;;18.30;;
5499;SDS011;2772;42.700;23.304;2023-06-14T10:23:35;28.03;;;19.97;;
5499;SDS011;2772;42.700;23.304;2023-06-14T10:26:04;28.43;;;16.63;;
5499;SDS011;2772;42.700;23.304;2023-06-14T10:28:31;14.40;;;12.90;;
5499;SDS011;2772;42.700;23.304;2023-06-14T10:31:03;31.73;;;25.40;;
5499;SDS011;2772;42.700;23.304;2023-06-14T10:33:31;16.97;;;14.27;;
5499;SDS011;2772;42.700;23.304;2023-06-14T10:36:23;16.00;;;12.50;;
5499;SDS011;2772;42.700;23.304;2023-06-14T10:38:59;19.20;;;13.27;;
5499;SDS011;2772;42.700;23.304;2023-06-14T10:41:28;15.50;;;13.90;;
5499;SDS011;2772;42.700;23.304;2023-06-14T10:47:01;14.70;;;13.20;;
5499;SDS011;2772;42.700;23.304;2023-06-14T10:49:38;15.47;;;13.40;;
5499;SDS011;2772;42.700;23.304;2023-06-14T10:52:10;31.13;;;21.57;;
5499;SDS011;2772;42.700;23.304;2023-06-14T10:54:55;20.17;;;13.93;;
5499;SDS011;2772;42.700;23.304;2023-06-14T10:57:38;16.57;;;13.60;;
5499;SDS011;2772;42.700;23.304;2023-06-14T11:00:06;17.47;;;15.17;;
5499;SDS011;2772;42.700;23.304;2023-06-14T11:06:08;18.80;;;13.40;;
5499;SDS011;2772;42.700;23.304;2023-06-14T11:11:37;16.63;;;13.70;;
5499;SDS011;2772;42.700;23.304;2023-06-14T11:14:08;14.57;;;12.13;;
5499;SDS011;2772;42.700;23.304;2023-06-14T11:16:34;14.13;;;12.30;;
5499;SDS011;2772;42.700;23.304;2023-06-14T11:19:01;13.47;;;11.80;;
5499;SDS011;2772;42.700;23.304;2023-06-14T11:21:31;13.03;;;11.73;;
5499;SDS011;2772;42.700;23.304;2023-06-14T11:23:58;14.47;;;12.30;;
5499;SDS011;2772;42.700;23.304;2023-06-14T11:26:25;15.70;;;12.97;;
5499;SDS011;2772;42.700;23.304;2023-06-14T11:28:54;12.70;;;10.93;;
5499;SDS011;2772;42.700;23.304;2023-06-14T11:31:22;13.23;;;11.83;;
5499;SDS011;2772;42.700;23.304;2023-06-14T11:33:49;15.40;;;11.57;;
5499;SDS011;2772;42.700;23.304;2023-06-14T11:36:16;12.50;;;11.17;;
5499;SDS011;2772;42.700;23.304;2023-06-14T11:38:44;14.53;;;10.87;;
5499;SDS011;2772;42.700;23.304;2023-06-14T11:41:11;11.80;;;10.60;;
5499;SDS011;2772;42.700;23.304;2023-06-14T11:43:39;11.77;;;10.13;;
5499;SDS011;2772;42.700;23.304;2023-06-14T11:46:11;14.97;;;10.47;;
5499;SDS011;2772;42.700;23.304;2023-06-14T11:48:41;13.90;;;12.50;;
5499;SDS011;2772;42.700;23.304;2023-06-14T11:51:08;13.70;;;10.30;;
5499;SDS011;2772;42.700;23.304;2023-06-14T11:53:36;12.63;;;11.10;;
5499;SDS011;2772;42.700;23.304;2023-06-14T11:56:04;15.60;;;10.93;;
5499;SDS011;2772;42.700;23.304;2023-06-14T11:58:31;15.00;;;13.43;;
5499;SDS011;2772;42.700;23.304;2023-06-14T12:00:58;11.47;;;10.27;;
5499;SDS011;2772;42.700;23.304;2023-06-14T12:03:25;13.07;;;10.73;;
5499;SDS011;2772;42.700;23.304;2023-06-14T12:06:01;13.57;;;11.00;;
5499;SDS011;2772;42.700;23.304;2023-06-14T12:08:33;11.57;;;10.37;;
5499;SDS011;2772;42.700;23.304;2023-06-14T12:11:06;10.80;;;9.80;;
5499;SDS011;2772;42.700;23.304;2023-06-14T12:13:37;10.77;;;9.60;;
5499;SDS011;2772;42.700;23.304;2023-06-14T12:16:06;10.73;;;9.53;;
5499;SDS011;2772;42.700;23.304;2023-06-14T12:18:33;13.63;;;9.47;;
5499;SDS011;2772;42.700;23.304;2023-06-14T12:21:02;11.90;;;9.90;;
5499;SDS011;2772;42.700;23.304;2023-06-14T12:23:44;10.90;;;9.80;;
5499;SDS011;2772;42.700;23.304;2023-06-14T12:26:14;15.53;;;9.87;;
5499;SDS011;2772;42.700;23.304;2023-06-14T12:28:41;11.83;;;8.90;;
5499;SDS011;2772;42.700;23.304;2023-06-14T12:31:09;9.97;;;9.07;;
5499;SDS011;2772;42.700;23.304;2023-06-14T12:33:37;9.50;;;8.50;;
5499;SDS011;2772;42.700;23.304;2023-06-14T12:36:04;11.03;;;9.90;;
5499;SDS011;2772;42.700;23.304;2023-06-14T12:38:31;12.00;;;9.20;;
5499;SDS011;2772;42.700;23.304;2023-06-14T12:40:58;13.50;;;9.30;;
5499;SDS011;2772;42.700;23.304;2023-06-14T12:43:27;9.67;;;8.67;;
5499;SDS011;2772;42.700;23.304;2023-06-14T12:45:53;11.23;;;10.10;;
5499;SDS011;2772;42.700;23.304;2023-06-14T12:48:20;8.70;;;7.80;;
5499;SDS011;2772;42.700;23.304;2023-06-14T12:50:47;11.90;;;8.43;;
5499;SDS011;2772;42.700;23.304;2023-06-14T12:53:14;19.80;;;9.67;;
5499;SDS011;2772;42.700;23.304;2023-06-14T12:55:42;10.40;;;8.43;;
5499;SDS011;2772;42.700;23.304;2023-06-14T12:58:08;10.23;;;9.07;;
5499;SDS011;2772;42.700;23.304;2023-06-14T13:00:38;17.80;;;9.20;;
5499;SDS011;2772;42.700;23.304;2023-06-14T13:03:05;10.67;;;8.00;;
5499;SDS011;2772;42.700;23.304;2023-06-14T13:05:32;9.50;;;7.50;;
5499;SDS011;2772;42.700;23.304;2023-06-14T13:07:59;9.20;;;8.30;;
5499;SDS011;2772;42.700;23.304;2023-06-14T13:10:25;9.53;;;8.60;;
5499;SDS011;2772;42.700;23.304;2023-06-14T13:12:52;12.20;;;8.17;;
5499;SDS011;2772;42.700;23.304;2023-06-14T13:15:20;9.40;;;7.83;;
5499;SDS011;2772;42.700;23.304;2023-06-14T13:17:48;12.00;;;8.87;;
5499;SDS011;2772;42.700;23.304;2023-06-14T13:20:15;22.37;;;16.40;;
5499;SDS011;2772;42.700;23.304;2023-06-14T13:22:45;17.43;;;11.73;;
5499;SDS011;2772;42.700;23.304;2023-06-14T13:25:12;17.40;;;13.63;;
5499;SDS011;2772;42.700;23.304;2023-06-14T13:27:38;15.10;;;9.07;;
5499;SDS011;2772;42.700;23.304;2023-06-14T13:30:06;28.20;;;22.63;;
5499;SDS011;2772;42.700;23.304;2023-06-14T13:32:34;9.60;;;7.80;;
5499;SDS011;2772;42.700;23.304;2023-06-14T13:35:02;13.23;;;9.70;;
5499;SDS011;2772;42.700;23.304;2023-06-14T13:37:30;24.20;;;19.13;;
5499;SDS011;2772;42.700;23.304;2023-06-14T13:39:56;14.53;;;11.83;;
5499;SDS011;2772;42.700;23.304;2023-06-14T13:42:23;10.93;;;8.00;;
5499;SDS011;2772;42.700;23.304;2023-06-14T13:44:50;15.37;;;11.80;;
5499;SDS011;2772;42.700;23.304;2023-06-14T13:47:17;19.00;;;14.10;;
5499;SDS011;2772;42.700;23.304;2023-06-14T13:49:44;13.63;;;10.63;;
5499;SDS011;2772;42.700;23.304;2023-06-14T13:52:12;18.17;;;11.13;;
5499;SDS011;2772;42.700;23.304;2023-06-14T13:54:39;10.70;;;9.70;;
5499;SDS011;2772;42.700;23.304;2023-06-14T13:57:06;19.10;;;15.73;;
5499;SDS011;2772;42.700;23.304;2023-06-14T13:59:34;22.27;;;18.30;;
5499;SDS011;2772;42.700;23.304;2023-06-14T14:02:00;17.43;;;13.40;;
5499;SDS011;2772;42.700;23.304;2023-06-14T14:04:28;13.60;;;11.60;;
5499;SDS011;2772;42.700;23.304;2023-06-14T14:06:55;12.37;;;10.33;;
5499;SDS011;2772;42.700;23.304;2023-06-14T14:09:23;17.60;;;12.77;;
5499;SDS011;2772;42.700;23.304;2023-06-14T14:11:50;14.00;;;12.30;;
5499;SDS011;2772;42.700;23.304;2023-06-14T14:14:16;15.50;;;13.33;;
5499;SDS011;2772;42.700;23.304;2023-06-14T14:16:43;15.00;;;13.07;;
5499;SDS011;2772;42.700;23.304;2023-06-14T14:19:10;15.30;;;10.87;;
5499;SDS011;2772;42.700;23.304;2023-06-14T14:21:36;11.13;;;10.03;;
5499;SDS011;2772;42.700;23.304;2023-06-14T14:24:03;26.53;;;21.47;;
5499;SDS011;2772;42.700;23.304;2023-06-14T14:26:32;50.27;;;36.67;;
5499;SDS011;2772;42.700;23.304;2023-06-14T14:28:59;13.77;;;12.37;;
5499;SDS011;2772;42.700;23.304;2023-06-14T14:31:27;20.67;;;15.43;;
5499;SDS011;2772;42.700;23.304;2023-06-14T14:33:54;15.70;;;11.73;;
5499;SDS011;2772;42.700;23.304;2023-06-14T14:36:20;22.20;;;16.43;;
5499;SDS011;2772;42.700;23.304;2023-06-14T14:38:48;14.90;;;11.70;;
5499;SDS011;2772;42.700;23.304;2023-06-14T14:41:16;11.67;;;10.47;;
5499;SDS011;2772;42.700;23.304;2023-06-14T14:43:44;17.87;;;14.63;;
5499;SDS011;2772;42.700;23.304;2023-06-14T14:46:11;21.43;;;14.87;;
5499;SDS011;2772;42.700;23.304;2023-06-14T14:48:38;12.63;;;7.80;;
5499;SDS011;2772;42.700;23.304;2023-06-14T14:51:12;14.17;;;8.20;;
5499;SDS011;2772;42.700;23.304;2023-06-14T14:53:42;11.33;;;9.67;;
5499;SDS011;2772;42.700;23.304;2023-06-14T14:56:09;9.20;;;8.30;;
5499;SDS011;2772;42.700;23.304;2023-06-14T14:58:37;11.80;;;9.53;;
5499;SDS011;2772;42.700;23.304;2023-06-14T15:01:05;14.97;;;12.13;;